createdAt,value
2022-09-22T00:02:23.503Z,10.40
2022-09-22T00:04:50.059Z,10.40
2022-09-22T00:07:16.395Z,10.50
2022-09-22T00:09:42.813Z,10.60
2022-09-22T00:32:51.550Z,10.30
2022-09-22T00:35:17.923Z,10.20
2022-09-22T00:37:44.081Z,10.30
2022-09-22T00:40:10.454Z,10.30
2022-09-22T00:42:37.141Z,10.30
2022-09-22T00:45:03.963Z,10.40
2022-09-22T00:47:39.621Z,10.40
2022-09-22T01:11:20.631Z,10.70
2022-09-22T01:14:11.825Z,10.70
2022-09-22T01:16:49.851Z,10.60
2022-09-22T01:19:55.440Z,10.60
2022-09-22T01:22:28.446Z,10.60
2022-09-22T01:33:42.966Z,10.40
2022-09-22T01:36:33.143Z,10.20
2022-09-22T01:39:11.559Z,10.30
2022-09-22T01:41:51.138Z,10.40
2022-09-22T01:44:25.121Z,10.30
2022-09-22T01:46:59.814Z,10.40
2022-09-22T01:49:30.717Z,10.40
2022-09-22T02:23:22.876Z,10.50
2022-09-22T02:25:50.018Z,10.40
2022-09-22T02:28:20.213Z,10.40
2022-09-22T02:31:04.665Z,10.50
2022-09-22T02:33:44.734Z,10.50
2022-09-22T02:36:20.131Z,10.40
2022-09-22T02:54:54.051Z,10.20
2022-09-22T02:57:20.927Z,10.70
2022-09-22T02:59:49.009Z,10.70
2022-09-22T03:02:15.241Z,10.60
2022-09-22T03:04:41.634Z,10.50
2022-09-22T03:07:07.872Z,10.50
2022-09-22T03:09:34.312Z,10.40
2022-09-22T03:17:40.912Z,10.40
2022-09-22T03:20:11.042Z,10.70
2022-09-22T03:22:38.099Z,10.60
2022-09-22T03:25:05.888Z,10.60
2022-09-22T03:27:32.745Z,10.50
2022-09-22T03:29:59.026Z,10.50
2022-09-22T03:32:25.363Z,10.50
2022-09-22T03:38:14.948Z,10.50
2022-09-22T03:40:48.280Z,10.60
2022-09-22T03:43:16.793Z,10.60
2022-09-22T03:45:43.647Z,10.60
2022-09-22T03:48:09.999Z,10.60
2022-09-22T03:50:36.189Z,10.70
2022-09-22T03:53:02.611Z,10.60
2022-09-22T04:11:08.378Z,10.60
2022-09-22T04:13:57.377Z,10.50
2022-09-22T04:16:29.028Z,10.40
2022-09-22T04:18:55.625Z,10.40
2022-09-22T04:21:21.954Z,10.40
2022-09-22T04:23:48.717Z,10.40
2022-09-22T04:26:15.117Z,10.40
2022-09-22T04:28:41.617Z,10.40
2022-09-22T04:46:50.072Z,10.60
2022-09-22T04:49:33.164Z,10.50
2022-09-22T04:51:59.415Z,10.60
2022-09-22T04:54:25.800Z,10.60
2022-09-22T04:56:52.053Z,10.70
2022-09-22T04:59:18.362Z,10.70
2022-09-22T05:01:44.866Z,10.80
2022-09-22T05:04:11.377Z,10.80
2022-09-22T05:22:07.727Z,11.00
2022-09-22T05:24:34.140Z,10.90
2022-09-22T05:27:07.793Z,11.00
2022-09-22T05:29:34.024Z,11.10
2022-09-22T05:32:00.667Z,11.10
2022-09-22T05:34:26.993Z,11.10
2022-09-22T05:36:53.229Z,11.20
2022-09-22T05:39:21.022Z,11.20
2022-09-22T05:57:26.770Z,11.40
2022-09-22T05:59:56.486Z,11.70
2022-09-22T06:02:51.363Z,11.70
2022-09-22T06:05:19.501Z,11.60
2022-09-22T06:07:48.257Z,11.60
2022-09-22T06:10:14.880Z,11.50
2022-09-22T06:12:41.402Z,11.50
2022-09-22T06:15:07.937Z,11.50
2022-09-22T06:17:34.694Z,11.50
2022-09-22T06:20:01.375Z,11.50
2022-09-22T06:50:54.466Z,12.10
2022-09-22T06:53:24.948Z,12.20
2022-09-22T06:55:53.860Z,12.30
2022-09-22T06:58:21.542Z,12.50
2022-09-22T07:00:48.356Z,12.40
2022-09-22T07:03:21.797Z,12.50
2022-09-22T07:05:53.118Z,12.50
2022-09-22T07:24:09.262Z,12.50
2022-09-22T07:27:30.010Z,12.60
2022-09-22T07:29:57.003Z,12.80
2022-09-22T07:32:24.251Z,13.00
2022-09-22T07:34:52.017Z,13.20
2022-09-22T07:37:18.841Z,13.30
2022-09-22T07:39:45.324Z,13.50
2022-09-22T07:42:12.019Z,13.60
2022-09-22T08:16:35.858Z,14.20
2022-09-22T08:19:09.862Z,14.10
2022-09-22T08:21:40.763Z,14.10
2022-09-22T08:24:15.610Z,14.10
2022-09-22T08:26:47.961Z,14.10
2022-09-22T08:29:14.977Z,14.00
2022-09-22T08:31:41.957Z,14.00
2022-09-22T08:58:06.965Z,15.40
2022-09-22T09:00:42.914Z,15.10
2022-09-22T09:03:42.794Z,15.10
2022-09-22T09:06:35.999Z,15.40
2022-09-22T09:09:18.307Z,15.70
2022-09-22T09:12:20.256Z,15.90
2022-09-22T09:52:09.879Z,16.90
2022-09-22T09:54:37.072Z,17.20
2022-09-22T09:57:15.705Z,17.30
2022-09-22T10:00:04.143Z,17.10
2022-09-22T10:02:35.295Z,16.70
2022-09-22T10:05:05.628Z,16.30
2022-09-22T10:13:16.035Z,15.50
2022-09-22T10:16:19.027Z,15.10
2022-09-22T10:18:49.651Z,15.10
2022-09-22T10:21:23.436Z,15.00
2022-09-22T10:23:52.249Z,15.20
2022-09-22T10:26:29.849Z,15.40
2022-09-22T10:29:11.877Z,15.80
2022-09-22T10:50:22.010Z,16.00
2022-09-22T10:53:01.754Z,16.00
2022-09-22T10:55:36.744Z,15.80
2022-09-22T10:58:08.999Z,15.90
2022-09-22T11:00:40.274Z,15.70
2022-09-22T11:03:44.461Z,15.60
2022-09-22T11:06:41.617Z,15.60
2022-09-22T11:16:15.127Z,16.30
2022-09-22T11:19:19.710Z,16.10
2022-09-22T11:21:57.764Z,16.00
2022-09-22T11:25:09.161Z,15.60
2022-09-22T11:42:29.629Z,15.30
2022-09-22T11:57:33.343Z,15.80
2022-09-22T12:00:20.205Z,15.70
2022-09-22T12:03:16.711Z,15.60
2022-09-22T12:05:52.567Z,15.60
2022-09-22T12:08:22.473Z,15.60
2022-09-22T12:26:30.849Z,15.60
2022-09-22T12:29:00.250Z,16.00
2022-09-22T12:31:39.694Z,15.90
2022-09-22T12:34:18.042Z,15.70
2022-09-22T12:36:46.044Z,15.50
2022-09-22T12:53:20.904Z,15.20
2022-09-22T13:47:44.325Z,15.30
2022-09-22T13:50:22.570Z,15.20
2022-09-22T13:52:50.987Z,15.20
2022-09-22T13:55:33.633Z,15.40
2022-09-22T13:58:02.320Z,15.40
2022-09-22T14:14:00.825Z,15.40
2022-09-22T14:16:55.931Z,15.20
2022-09-22T14:19:33.328Z,14.90
2022-09-22T14:22:05.327Z,14.90
2022-09-22T14:24:33.913Z,14.80
2022-09-22T14:27:04.445Z,14.80
2022-09-22T14:29:32.131Z,14.70
2022-09-22T14:32:13.161Z,14.60
2022-09-22T14:40:58.084Z,14.60
2022-09-22T14:43:32.546Z,14.50
2022-09-22T14:46:03.895Z,14.60
2022-09-22T14:48:37.376Z,14.60
2022-09-22T14:51:13.862Z,14.40
2022-09-22T14:53:48.741Z,14.50
2022-09-22T14:56:22.239Z,14.50
2022-09-22T14:58:52.204Z,14.40
2022-09-22T15:01:49.324Z,14.30
2022-09-22T15:12:04.817Z,14.00
2022-09-22T15:14:39.454Z,14.20
2022-09-22T15:17:57.617Z,14.10
2022-09-22T15:20:40.457Z,14.00
2022-09-22T15:23:41.089Z,13.90
2022-09-22T15:26:28.358Z,13.70
2022-09-22T15:28:58.278Z,13.50
2022-09-22T15:31:27.544Z,13.40
2022-09-22T15:33:58.587Z,13.40
2022-09-22T15:52:04.151Z,13.50
2022-09-22T15:54:49.599Z,13.90
2022-09-22T15:57:19.917Z,13.80
2022-09-22T15:59:46.439Z,13.80
2022-09-22T16:02:12.947Z,13.90
2022-09-22T16:04:39.101Z,13.90
2022-09-22T16:07:09.814Z,13.80
2022-09-22T16:09:36.359Z,13.70
2022-09-22T16:27:40.999Z,13.50
2022-09-22T16:30:15.159Z,13.50
2022-09-22T16:32:48.061Z,13.50
2022-09-22T16:35:14.617Z,13.40
2022-09-22T16:37:40.771Z,13.30
2022-09-22T16:40:07.825Z,13.30
2022-09-22T16:42:34.298Z,13.20
2022-09-22T17:01:32.037Z,13.10
2022-09-22T17:03:58.732Z,13.00
2022-09-22T17:06:26.401Z,12.90
2022-09-22T17:08:57.625Z,12.70
2022-09-22T17:11:30.552Z,12.60
2022-09-22T17:14:02.222Z,12.40
2022-09-22T17:16:32.997Z,12.40
2022-09-22T17:19:08.837Z,12.30
2022-09-22T17:21:37.817Z,12.30
2022-09-22T17:24:05.663Z,12.20
2022-09-22T17:45:19.555Z,12.60
2022-09-22T17:48:04.750Z,12.70
2022-09-22T17:50:49.770Z,12.80
2022-09-22T17:53:39.512Z,12.80
2022-09-22T17:56:18.296Z,12.90
2022-09-22T17:58:44.729Z,13.10
2022-09-22T18:01:10.938Z,13.10
2022-09-22T18:17:40.903Z,12.80
2022-09-22T18:20:11.265Z,12.70
2022-09-22T18:23:02.013Z,12.60
2022-09-22T18:25:36.947Z,12.70
2022-09-22T18:28:04.897Z,12.70
2022-09-22T18:30:33.122Z,12.80
2022-09-22T18:32:59.596Z,12.70
2022-09-22T18:35:28.166Z,12.60
2022-09-22T18:54:58.333Z,12.50
2022-09-22T18:57:24.900Z,11.90
2022-09-22T19:00:04.612Z,11.90
2022-09-22T19:02:41.761Z,11.90
2022-09-22T19:05:08.465Z,11.70
2022-09-22T19:07:41.558Z,11.80
2022-09-22T19:10:14.153Z,11.90
2022-09-22T19:12:41.739Z,12.00
2022-09-22T19:15:14.520Z,12.00
2022-09-22T19:35:59.573Z,12.10
2022-09-22T19:39:00.286Z,11.60
2022-09-22T19:41:27.169Z,11.60
2022-09-22T19:43:54.224Z,11.40
2022-09-22T19:46:20.509Z,11.30
2022-09-22T19:48:47.957Z,11.10
2022-09-22T19:51:15.373Z,11.00
2022-09-22T19:53:41.796Z,10.90
2022-09-22T19:56:08.469Z,10.70
2022-09-22T20:16:46.638Z,11.30
2022-09-22T20:19:13.469Z,11.20
2022-09-22T20:21:42.085Z,11.20
2022-09-22T20:24:12.975Z,11.20
2022-09-22T20:26:41.647Z,11.10
2022-09-22T20:29:08.945Z,11.10
2022-09-22T20:38:51.461Z,11.40
2022-09-22T20:41:20.504Z,11.40
2022-09-22T20:43:48.155Z,11.30
2022-09-22T20:46:15.671Z,11.30
2022-09-22T20:48:42.316Z,11.30
2022-09-22T20:51:11.950Z,11.20
2022-09-22T20:53:41.426Z,11.20
2022-09-22T21:22:15.511Z,11.20
2022-09-22T21:24:44.999Z,11.20
2022-09-22T21:27:12.644Z,11.10
2022-09-22T22:21:19.253Z,10.50
2022-09-22T22:23:47.638Z,10.50
2022-09-22T22:26:19.847Z,10.60
2022-09-22T22:28:47.757Z,10.60
2022-09-22T22:31:17.293Z,10.50
2022-09-22T22:50:44.281Z,10.70
2022-09-22T22:53:12.370Z,10.60
2022-09-22T22:55:51.058Z,10.60
2022-09-22T22:58:17.547Z,10.50
2022-09-22T23:00:44.280Z,10.30
2022-09-22T23:03:10.519Z,10.20
2022-09-22T23:05:42.994Z,10.10
2022-09-22T23:44:27.790Z,9.70
2022-09-22T23:46:54.227Z,9.90
2022-09-22T23:49:20.539Z,9.90
2022-09-22T23:51:46.875Z,9.70
2022-09-22T23:54:13.471Z,9.60
2022-09-22T23:56:39.718Z,9.50
2022-09-22T23:59:06.283Z,9.50
